Time;durP1;ratioP1;P1;durP2;ratioP2;P2;SDS_P1;SDS_P2;PMS_P1;PMS_P2;Temp;Humidity;BMP_temperature;BMP_pressure;BME280_temperature;BME280_humidity;BME280_pressure;Samples;Min_cycle;Max_cycle;Signal;HPM_P1;HPM_P2
2023/09/04 00:00:58;;;;;;;9.82;7.00;;;13.50;99.90;;;;;;5052190;28;20033;-65
2023/09/04 00:03:26;;;;;;;11.38;7.60;;;13.40;99.90;;;;;;5019114;28;20036;-65
2023/09/04 00:05:51;;;;;;;9.50;6.68;;;13.40;99.90;;;;;;5052914;28;20037;-65
2023/09/04 00:08:18;;;;;;;10.98;7.13;;;13.40;99.90;;;;;;5017664;28;20044;-65
2023/09/04 00:10:44;;;;;;;10.07;7.00;;;13.40;99.90;;;;;;5035018;28;20556;-66
2023/09/04 00:13:11;;;;;;;10.65;7.00;;;13.40;99.90;;;;;;5051964;28;20072;-66
2023/09/04 00:15:37;;;;;;;10.35;7.22;;;13.40;99.90;;;;;;5034719;28;20040;-65
2023/09/04 00:18:03;;;;;;;9.93;6.88;;;13.40;99.90;;;;;;5035324;28;20067;-65
2023/09/04 00:20:29;;;;;;;10.63;5.95;;;13.40;99.90;;;;;;5034015;28;20390;-65
2023/09/04 00:22:55;;;;;;;12.32;7.65;;;13.40;99.90;;;;;;5035197;28;20041;-65
2023/09/04 00:25:21;;;;;;;10.13;6.63;;;13.40;99.90;;;;;;5034418;28;20056;-65
2023/09/04 00:27:48;;;;;;;8.85;6.13;;;13.40;99.90;;;;;;5051688;28;20633;-65
2023/09/04 00:30:13;;;;;;;8.15;5.55;;;13.30;99.90;;;;;;5052610;28;20167;-66
2023/09/04 00:32:39;;;;;;;8.77;5.70;;;13.30;99.90;;;;;;5034425;28;20119;-65
2023/09/04 00:35:06;;;;;;;9.18;6.00;;;13.30;99.90;;;;;;5034061;28;20037;-65
2023/09/04 00:37:32;;;;;;;10.65;5.80;;;13.30;99.90;;;;;;5034895;28;20044;-65
2023/09/04 00:39:57;;;;;;;9.27;5.85;;;13.30;99.90;;;;;;5034818;28;20505;-65
2023/09/04 00:42:23;;;;;;;11.35;6.68;;;13.30;99.90;;;;;;5032791;28;20053;-66
2023/09/04 00:44:50;;;;;;;8.95;5.88;;;13.30;99.90;;;;;;5034229;28;20037;-65
2023/09/04 00:47:22;;;;;;;8.95;5.82;;;13.30;99.90;;;;;;5052011;28;20410;-65
2023/09/04 00:49:50;;;;;;;9.23;6.07;;;13.30;99.90;;;;;;5051627;28;20045;-65
2023/09/04 00:52:16;;;;;;;7.43;5.32;;;13.30;99.90;;;;;;5034480;28;20399;-65
2023/09/04 00:54:42;;;;;;;7.45;5.72;;;13.30;99.90;;;;;;5034421;28;20185;-65
2023/09/04 00:57:10;;;;;;;9.10;6.18;;;13.30;99.90;;;;;;5051412;28;20059;-65
2023/09/04 00:59:36;;;;;;;8.57;6.00;;;13.30;99.90;;;;;;5034195;28;20040;-65
2023/09/04 01:02:04;;;;;;;10.93;7.30;;;13.30;99.90;;;;;;5034443;28;20421;-65
2023/09/04 01:04:30;;;;;;;9.27;5.20;;;13.20;99.90;;;;;;5033157;28;20076;-65
2023/09/04 01:06:57;;;;;;;8.23;5.60;;;13.20;99.90;;;;;;5034348;28;20563;-65
2023/09/04 01:09:23;;;;;;;8.25;4.95;;;13.20;99.90;;;;;;5050956;28;20462;-65
2023/09/04 01:11:58;;;;;;;10.32;5.93;;;13.20;99.90;;;;;;5051726;28;20068;-65
2023/09/04 01:14:26;;;;;;;10.30;6.15;;;13.20;99.90;;;;;;5051783;28;20082;-65
2023/09/04 01:16:52;;;;;;;9.20;6.25;;;13.20;99.90;;;;;;5051090;28;20033;-65
2023/09/04 01:19:19;;;;;;;8.90;5.43;;;13.20;99.90;;;;;;5034334;28;20551;-65
2023/09/04 01:21:44;;;;;;;12.27;6.20;;;13.10;99.90;;;;;;5034062;28;20397;-65
2023/09/04 01:24:10;;;;;;;7.65;5.15;;;13.20;99.90;;;;;;5033508;28;20044;-65
2023/09/04 01:26:39;;;;;;;9.45;5.72;;;13.20;99.90;;;;;;5051863;28;20394;-65
2023/09/04 01:29:20;;;;;;;9.32;6.03;;;13.20;99.90;;;;;;5017608;28;20168;-65
2023/09/04 01:32:12;;;;;;;9.02;6.07;;;13.20;99.90;;;;;;5033375;28;20370;-65
2023/09/04 01:34:42;;;;;;;8.68;6.10;;;13.20;99.90;;;;;;5033346;28;20033;-65
2023/09/04 01:37:09;;;;;;;9.45;6.32;;;13.10;99.90;;;;;;5034175;28;20436;-65
2023/09/04 01:39:37;;;;;;;9.27;6.45;;;13.10;99.90;;;;;;5032727;28;20068;-65
2023/09/04 01:42:02;;;;;;;8.00;5.63;;;13.10;99.90;;;;;;5034326;28;20521;-65
2023/09/04 01:44:28;;;;;;;10.13;6.43;;;13.10;99.90;;;;;;5033817;28;20069;-65
2023/09/04 01:46:54;;;;;;;10.73;6.68;;;13.10;99.90;;;;;;5029861;28;20088;-65
2023/09/04 01:49:19;;;;;;;8.25;5.93;;;13.10;99.90;;;;;;5030317;28;20398;-66
2023/09/04 01:51:45;;;;;;;10.50;7.50;;;13.10;99.90;;;;;;5029691;28;20049;-66
2023/09/04 01:54:11;;;;;;;10.65;7.30;;;13.10;99.90;;;;;;5032222;28;20045;-65
2023/09/04 01:56:37;;;;;;;11.57;8.00;;;13.10;99.90;;;;;;5035712;28;20048;-65
2023/09/04 01:59:03;;;;;;;11.43;6.85;;;13.20;99.90;;;;;;5033750;28;20487;-65
2023/09/04 02:01:28;;;;;;;10.85;7.28;;;13.20;99.90;;;;;;5033691;28;20403;-65
2023/09/04 02:03:56;;;;;;;10.18;6.22;;;13.20;99.90;;;;;;5035505;28;20072;-65
2023/09/04 02:06:27;;;;;;;10.10;7.53;;;13.20;99.90;;;;;;5034348;28;20037;-65
2023/09/04 02:08:53;;;;;;;9.68;6.22;;;13.10;99.90;;;;;;5035352;28;20038;-65
2023/09/04 02:11:18;;;;;;;10.00;7.18;;;13.10;99.90;;;;;;5033962;28;20044;-65
2023/09/04 02:13:47;;;;;;;9.45;6.45;;;13.10;99.90;;;;;;5034182;28;20037;-65
2023/09/04 02:16:13;;;;;;;11.98;6.85;;;13.10;99.90;;;;;;5017326;28;20437;-65
2023/09/04 02:18:39;;;;;;;10.77;6.75;;;13.10;99.90;;;;;;5033001;28;20037;-65
2023/09/04 02:21:06;;;;;;;9.90;5.93;;;13.10;99.90;;;;;;5034406;28;20087;-65
2023/09/04 02:23:31;;;;;;;10.38;6.05;;;13.10;99.90;;;;;;5035147;28;20033;-65
2023/09/04 02:25:57;;;;;;;9.48;6.32;;;13.00;99.90;;;;;;5033389;28;20121;-65
2023/09/04 02:28:23;;;;;;;9.65;6.93;;;13.00;99.90;;;;;;5034032;28;20044;-65
2023/09/04 02:30:49;;;;;;;11.23;7.15;;;13.00;99.90;;;;;;5033511;28;20102;-65
2023/09/04 02:33:18;;;;;;;9.90;6.63;;;13.00;99.90;;;;;;5033540;28;20037;-65
2023/09/04 02:35:44;;;;;;;8.88;5.72;;;13.00;99.90;;;;;;5032360;28;20167;-65
2023/09/04 02:38:09;;;;;;;8.95;5.63;;;12.90;99.90;;;;;;5033566;28;20116;-65
2023/09/04 02:40:35;;;;;;;9.35;6.53;;;13.00;99.90;;;;;;5032730;28;20041;-65
2023/09/04 02:43:01;;;;;;;10.55;6.63;;;12.90;99.90;;;;;;5016246;28;20041;-65
2023/09/04 02:45:27;;;;;;;11.90;6.65;;;12.80;99.90;;;;;;5033456;28;20064;-65
2023/09/04 02:47:53;;;;;;;8.45;6.18;;;12.80;99.90;;;;;;5032649;28;20065;-65
2023/09/04 02:50:18;;;;;;;11.05;6.45;;;12.80;99.90;;;;;;5032498;28;20096;-65
2023/09/04 02:52:44;;;;;;;8.50;6.32;;;12.80;99.90;;;;;;5033252;28;20457;-65
2023/09/04 02:55:11;;;;;;;8.85;6.03;;;12.70;99.90;;;;;;5031958;28;20045;-65
2023/09/04 02:57:36;;;;;;;10.38;6.72;;;12.70;99.90;;;;;;5033088;28;20478;-65
2023/09/04 03:00:06;;;;;;;8.07;5.60;;;12.70;99.90;;;;;;5033902;28;20055;-65
2023/09/04 03:02:33;;;;;;;7.47;5.32;;;12.60;99.90;;;;;;5032801;28;20457;-65
2023/09/04 03:04:58;;;;;;;8.85;6.00;;;12.70;99.90;;;;;;5015509;28;20049;-66
2023/09/04 03:07:28;;;;;;;8.93;5.18;;;12.60;99.90;;;;;;5032881;28;20136;-65
2023/09/04 03:09:58;;;;;;;7.65;4.82;;;12.60;99.90;;;;;;5032492;28;20042;-66
2023/09/04 03:12:29;;;;;;;7.10;4.93;;;12.60;99.90;;;;;;5032732;28;20049;-65
2023/09/04 03:15:01;;;;;;;7.80;5.50;;;12.60;99.90;;;;;;5033451;28;20103;-65
2023/09/04 03:17:28;;;;;;;7.57;4.68;;;12.50;99.90;;;;;;5032147;28;20091;-65
2023/09/04 03:19:56;;;;;;;8.00;5.15;;;12.40;99.90;;;;;;5034496;28;20045;-65
2023/09/04 03:22:22;;;;;;;7.15;4.82;;;12.40;99.90;;;;;;5032766;28;20084;-65
2023/09/04 03:24:48;;;;;;;7.85;5.18;;;12.40;99.90;;;;;;5031898;28;20076;-65
2023/09/04 03:27:14;;;;;;;7.88;5.07;;;12.40;99.90;;;;;;5033053;28;20076;-65
2023/09/04 03:29:40;;;;;;;7.82;5.28;;;12.40;99.90;;;;;;5016284;28;20482;-65
2023/09/04 03:32:06;;;;;;;7.93;5.60;;;12.40;99.90;;;;;;5031749;28;20471;-65
2023/09/04 03:34:31;;;;;;;7.80;5.53;;;12.40;99.90;;;;;;5016030;28;20044;-65
2023/09/04 03:36:57;;;;;;;8.05;5.40;;;12.30;99.90;;;;;;5033206;28;20037;-65
2023/09/04 03:39:23;;;;;;;8.02;5.10;;;12.30;99.90;;;;;;5031841;28;20479;-65
2023/09/04 03:41:49;;;;;;;7.20;4.70;;;12.30;99.90;;;;;;5015761;28;20038;-66
2023/09/04 03:44:14;;;;;;;6.93;4.70;;;12.30;99.90;;;;;;5031859;28;20045;-65
2023/09/04 03:46:40;;;;;;;7.72;5.25;;;12.30;99.90;;;;;;5024670;28;20485;-65
2023/09/04 03:49:06;;;;;;;6.60;4.70;;;12.30;99.90;;;;;;5073262;28;20383;-65
2023/09/04 03:51:33;;;;;;;7.80;5.50;;;12.30;99.90;;;;;;5048348;28;20044;-65
2023/09/04 03:54:04;;;;;;;7.40;4.72;;;12.20;99.90;;;;;;5036002;28;20037;-65
2023/09/04 03:56:31;;;;;;;8.25;5.55;;;12.20;99.90;;;;;;5035357;28;20482;-65
2023/09/04 03:58:57;;;;;;;6.78;4.95;;;12.20;99.90;;;;;;5034981;28;20127;-65
2023/09/04 04:01:23;;;;;;;6.32;4.40;;;12.20;99.90;;;;;;5053613;28;20033;-65
2023/09/04 04:03:53;;;;;;;7.32;4.82;;;12.20;99.90;;;;;;5018971;28;20429;-65
2023/09/04 04:06:20;;;;;;;6.32;4.35;;;12.10;99.90;;;;;;5034344;28;20055;-65
2023/09/04 04:08:46;;;;;;;8.95;4.70;;;12.10;99.90;;;;;;5035474;28;20045;-65
2023/09/04 04:11:12;;;;;;;7.32;4.35;;;12.10;99.90;;;;;;5034969;28;20552;-65
2023/09/04 04:13:38;;;;;;;8.35;4.68;;;12.10;99.90;;;;;;5034133;28;20072;-65
2023/09/04 04:16:04;;;;;;;6.43;4.07;;;12.10;99.90;;;;;;5035530;28;20040;-65
2023/09/04 04:18:31;;;;;;;7.00;4.60;;;12.10;99.90;;;;;;5052532;28;20048;-66
2023/09/04 04:20:57;;;;;;;7.68;5.15;;;12.00;99.90;;;;;;5034126;28;20037;-65
2023/09/04 04:23:23;;;;;;;7.50;4.75;;;12.10;99.90;;;;;;5034798;28;20086;-65
2023/09/04 04:25:49;;;;;;;8.63;5.63;;;12.10;99.90;;;;;;5034973;28;20037;-65
2023/09/04 04:28:18;;;;;;;7.75;5.30;;;12.00;99.90;;;;;;5017902;28;20490;-65
2023/09/04 04:30:44;;;;;;;8.70;5.28;;;12.00;99.90;;;;;;5052738;28;20048;-65
2023/09/04 04:33:10;;;;;;;8.38;5.72;;;12.00;99.90;;;;;;5052631;28;20037;-66
2023/09/04 04:35:35;;;;;;;8.05;5.43;;;12.00;99.90;;;;;;5017841;28;20033;-65
2023/09/04 04:38:01;;;;;;;8.55;4.90;;;12.00;99.90;;;;;;5035058;28;20470;-65
2023/09/04 04:40:27;;;;;;;7.57;4.82;;;12.00;99.90;;;;;;5033805;28;20045;-65
2023/09/04 04:42:53;;;;;;;7.13;4.25;;;11.90;99.90;;;;;;5034601;28;20045;-65
2023/09/04 04:45:20;;;;;;;7.55;4.03;;;11.90;99.90;;;;;;5034516;28;20124;-65
2023/09/04 04:47:45;;;;;;;8.43;5.13;;;11.90;99.90;;;;;;5029499;28;20057;-65
2023/09/04 04:50:11;;;;;;;7.72;5.20;;;12.00;99.90;;;;;;5032297;28;20092;-65
2023/09/04 04:52:37;;;;;;;7.53;5.07;;;12.00;99.90;;;;;;5032276;28;20045;-65
2023/09/04 04:55:03;;;;;;;7.90;4.93;;;12.00;99.90;;;;;;5029942;28;20064;-65
2023/09/04 04:57:28;;;;;;;10.63;6.15;;;11.90;99.90;;;;;;5014474;28;20043;-65
2023/09/04 04:59:54;;;;;;;9.38;6.25;;;11.90;99.90;;;;;;5031501;28;20045;-65
2023/09/04 05:02:21;;;;;;;7.72;4.68;;;11.90;99.90;;;;;;5031697;28;20440;-65
2023/09/04 05:04:47;;;;;;;7.85;5.25;;;11.90;99.90;;;;;;5031859;28;20483;-65
2023/09/04 05:07:14;;;;;;;9.40;6.18;;;12.00;99.90;;;;;;5030843;28;20482;-65
2023/09/04 05:09:40;;;;;;;8.60;5.95;;;12.00;99.90;;;;;;5030301;28;20495;-65
2023/09/04 05:12:06;;;;;;;7.70;4.65;;;12.00;99.90;;;;;;5032053;28;20053;-65
2023/09/04 05:14:33;;;;;;;8.18;5.32;;;12.00;99.90;;;;;;5030519;28;20037;-65
2023/09/04 05:16:58;;;;;;;9.18;5.35;;;12.00;99.90;;;;;;5031518;28;20033;-65
2023/09/04 05:19:24;;;;;;;10.07;5.60;;;12.00;99.90;;;;;;5032251;28;20063;-66
2023/09/04 05:21:50;;;;;;;8.77;6.05;;;12.00;99.90;;;;;;5030520;28;20044;-65
2023/09/04 05:24:15;;;;;;;9.23;6.20;;;12.10;99.90;;;;;;5013685;28;20043;-65
2023/09/04 05:26:41;;;;;;;8.77;6.53;;;12.10;99.90;;;;;;5030771;28;20076;-65
2023/09/04 05:29:07;;;;;;;9.15;6.53;;;12.10;99.90;;;;;;5032289;28;20072;-65
2023/09/04 05:31:32;;;;;;;10.45;7.30;;;12.20;99.90;;;;;;5034239;28;20036;-65
2023/09/04 05:33:58;;;;;;;10.25;7.38;;;12.20;99.90;;;;;;5036002;28;20489;-65
2023/09/04 05:36:24;;;;;;;11.48;7.05;;;12.30;99.90;;;;;;5035982;28;20487;-66
2023/09/04 05:38:49;;;;;;;10.25;6.72;;;12.30;99.90;;;;;;5035232;28;20376;-65
2023/09/04 05:41:15;;;;;;;9.60;6.97;;;12.30;99.90;;;;;;5034494;28;20045;-65
2023/09/04 05:43:41;;;;;;;9.40;7.88;;;12.40;99.90;;;;;;5033517;28;20041;-65
2023/09/04 05:46:07;;;;;;;10.07;7.43;;;12.50;99.90;;;;;;5034223;28;20042;-65
2023/09/04 05:48:34;;;;;;;11.43;8.13;;;12.40;99.90;;;;;;5036739;28;20410;-65
2023/09/04 05:51:02;;;;;;;12.32;8.13;;;12.50;99.90;;;;;;5037340;28;20076;-65
2023/09/04 05:53:28;;;;;;;10.68;7.82;;;12.60;99.90;;;;;;5037213;28;20051;-65
2023/09/04 05:56:11;;;;;;;11.65;8.13;;;12.60;99.90;;;;;;5038297;28;20037;-65
2023/09/04 05:58:45;;;;;;;9.48;7.57;;;12.70;99.90;;;;;;5036604;28;20041;-65
2023/09/04 06:01:11;;;;;;;11.20;8.60;;;12.70;99.90;;;;;;5055299;28;20518;-65
2023/09/04 06:03:39;;;;;;;11.52;8.38;;;12.80;99.90;;;;;;5036455;28;20498;-65
2023/09/04 06:06:05;;;;;;;9.55;7.40;;;12.80;99.90;;;;;;5054646;28;20041;-65
2023/09/04 06:08:31;;;;;;;9.70;6.82;;;12.80;99.90;;;;;;5049568;28;20063;-65
2023/09/04 06:10:57;;;;;;;9.13;6.68;;;12.90;99.90;;;;;;5037463;28;20040;-67
2023/09/04 06:13:23;;;;;;;8.50;5.65;;;13.00;99.90;;;;;;5020346;28;20045;-65
2023/09/04 06:15:52;;;;;;;10.73;7.13;;;13.10;99.90;;;;;;5054454;28;20045;-65
2023/09/04 06:18:21;;;;;;;9.15;7.03;;;13.10;99.90;;;;;;5037337;28;20051;-65
2023/09/04 06:20:47;;;;;;;10.25;7.65;;;13.20;99.90;;;;;;5036304;28;20073;-64
2023/09/04 06:23:13;;;;;;;10.25;7.30;;;13.20;99.90;;;;;;5033540;28;20520;-64
2023/09/04 06:25:42;;;;;;;9.27;6.80;;;13.30;99.90;;;;;;5017855;28;20045;-64
2023/09/04 06:28:10;;;;;;;9.82;7.22;;;13.30;99.90;;;;;;5051616;28;20486;-64
2023/09/04 06:30:36;;;;;;;10.45;7.22;;;13.40;99.90;;;;;;5052231;28;20409;-64
2023/09/04 06:33:02;;;;;;;10.25;7.50;;;13.50;99.90;;;;;;5051217;28;20044;-64
2023/09/04 06:35:29;;;;;;;9.60;6.88;;;13.60;99.90;;;;;;5050097;28;20044;-64
2023/09/04 06:37:55;;;;;;;13.00;7.80;;;13.60;99.90;;;;;;5034651;28;20056;-64
2023/09/04 06:40:21;;;;;;;12.50;7.97;;;13.70;99.90;;;;;;5051627;28;20044;-65
2023/09/04 06:42:47;;;;;;;11.52;7.90;;;13.80;99.90;;;;;;5052261;28;20091;-65
2023/09/04 06:45:13;;;;;;;10.57;8.10;;;13.90;99.90;;;;;;5017072;28;20579;-65
2023/09/04 06:47:39;;;;;;;11.68;8.10;;;14.00;99.90;;;;;;5029551;28;20411;-64
2023/09/04 06:50:06;;;;;;;9.85;7.13;;;14.20;99.90;;;;;;5032470;28;20060;-64
2023/09/04 06:52:32;;;;;;;12.50;8.52;;;14.20;99.90;;;;;;5030409;28;20042;-64
2023/09/04 06:54:57;;;;;;;13.02;8.15;;;14.40;99.90;;;;;;5030443;28;20038;-64
2023/09/04 06:57:23;;;;;;;12.40;8.82;;;14.40;99.90;;;;;;5030537;28;20053;-64
2023/09/04 06:59:49;;;;;;;12.32;8.43;;;14.60;99.90;;;;;;5030450;28;20084;-64
2023/09/04 07:02:15;;;;;;;10.88;8.40;;;14.70;99.90;;;;;;5029796;28;20786;-65
2023/09/04 07:04:41;;;;;;;11.18;8.35;;;14.80;99.90;;;;;;5031291;28;20533;-64
2023/09/04 07:07:07;;;;;;;13.35;7.57;;;15.00;99.90;;;;;;5031850;28;20045;-64
2023/09/04 07:09:32;;;;;;;10.25;7.90;;;15.00;99.90;;;;;;5029633;28;20096;-64
2023/09/04 07:11:58;;;;;;;16.25;9.55;;;15.20;99.90;;;;;;5031688;28;20142;-64
2023/09/04 07:14:25;;;;;;;11.50;8.40;;;15.30;99.90;;;;;;5030202;28;20041;-64
2023/09/04 07:16:50;;;;;;;22.25;9.35;;;15.40;99.90;;;;;;5013573;28;20437;-64
2023/09/04 07:19:16;;;;;;;14.25;8.30;;;15.50;99.90;;;;;;5024259;28;20050;-64
2023/09/04 07:21:42;;;;;;;10.93;8.95;;;15.60;99.90;;;;;;4994091;28;20053;-64
2023/09/04 07:24:09;;;;;;;13.55;8.25;;;15.60;99.90;;;;;;5014504;28;20049;-64
2023/09/04 07:26:35;;;;;;;11.13;8.20;;;15.80;99.90;;;;;;5025196;28;20573;-65
2023/09/04 07:29:00;;;;;;;10.82;7.88;;;15.80;99.90;;;;;;5029619;28;20041;-65
2023/09/04 07:31:26;;;;;;;10.90;8.35;;;16.00;99.90;;;;;;5029528;28;20037;-65
2023/09/04 07:33:52;;;;;;;12.13;8.80;;;16.00;99.90;;;;;;5012399;28;20065;-65
2023/09/04 07:36:17;;;;;;;10.77;8.13;;;16.20;99.90;;;;;;5028950;28;20033;-65
2023/09/04 07:38:44;;;;;;;11.93;8.77;;;16.30;99.90;;;;;;5030269;28;20052;-65
2023/09/04 07:41:10;;;;;;;12.02;8.13;;;16.40;99.90;;;;;;5029141;28;20044;-65
2023/09/04 07:43:36;;;;;;;12.85;7.80;;;16.50;99.90;;;;;;5028194;28;20478;-64
2023/09/04 07:46:02;;;;;;;12.43;8.55;;;16.60;99.90;;;;;;5029673;28;20040;-64
2023/09/04 07:48:29;;;;;;;12.30;8.40;;;16.70;99.90;;;;;;5031560;28;20084;-65
2023/09/04 07:50:56;;;;;;;10.75;7.78;;;16.80;99.90;;;;;;5031437;28;20048;-66
2023/09/04 07:53:22;;;;;;;11.05;8.13;;;16.90;99.90;;;;;;5049739;28;20557;-66
2023/09/04 07:55:49;;;;;;;12.00;7.60;;;17.00;99.90;;;;;;5031885;28;20394;-66
2023/09/04 07:58:15;;;;;;;11.30;7.35;;;17.10;99.90;;;;;;5030755;28;20040;-67
2023/09/04 08:00:48;;;;;;;10.88;7.50;;;17.20;99.90;;;;;;5031648;28;20080;-66
2023/09/04 08:03:14;;;;;;;10.40;7.80;;;17.30;99.90;;;;;;5030808;28;20044;-66
2023/09/04 08:05:41;;;;;;;10.63;7.82;;;17.50;99.90;;;;;;5030543;28;20045;-66
2023/09/04 08:08:10;;;;;;;9.70;7.00;;;17.60;99.90;;;;;;5015131;28;20090;-66
2023/09/04 08:10:44;;;;;;;11.43;7.30;;;17.60;99.90;;;;;;5031147;28;20455;-67
2023/09/04 08:13:12;;;;;;;14.60;8.77;;;17.70;99.90;;;;;;5021132;28;20069;-67
2023/09/04 08:15:38;;;;;;;10.75;6.47;;;17.80;99.90;;;;;;5029151;28;20045;-66
2023/09/04 08:18:06;;;;;;;9.30;6.75;;;18.00;99.90;;;;;;5031684;28;20507;-67
2023/09/04 08:20:32;;;;;;;11.27;6.57;;;18.00;99.90;;;;;;5052061;28;20381;-67
2023/09/04 08:22:57;;;;;;;11.15;6.78;;;18.10;99.90;;;;;;5034936;28;20041;-67
2023/09/04 08:25:23;;;;;;;10.88;7.25;;;18.30;99.90;;;;;;5017648;28;20493;-67
2023/09/04 08:27:49;;;;;;;9.30;6.80;;;18.30;99.90;;;;;;5051138;28;20044;-67
2023/09/04 08:30:15;;;;;;;7.80;6.03;;;18.30;99.90;;;;;;5031257;28;20041;-68
2023/09/04 08:32:41;;;;;;;8.52;6.15;;;18.50;99.90;;;;;;5032980;28;20041;-69
2023/09/04 08:35:07;;;;;;;7.93;5.13;;;18.60;99.90;;;;;;5034418;28;20036;-66
2023/09/04 08:37:33;;;;;;;10.20;4.65;;;18.70;99.90;;;;;;5034277;28;20390;-67
2023/09/04 08:39:59;;;;;;;10.80;5.05;;;18.80;99.90;;;;;;5034037;28;20052;-67
2023/09/04 08:42:27;;;;;;;7.30;4.32;;;18.80;99.90;;;;;;5034666;28;20090;-67
2023/09/04 08:44:54;;;;;;;6.72;3.78;;;18.90;99.90;;;;;;5034664;28;20555;-68
2023/09/04 08:47:23;;;;;;;6.22;3.92;;;19.00;99.90;;;;;;5051121;28;20060;-68
2023/09/04 08:49:50;;;;;;;7.00;4.20;;;19.00;99.90;;;;;;5030124;28;20466;-67
2023/09/04 08:52:16;;;;;;;5.50;3.50;;;19.10;99.90;;;;;;5009765;28;20095;-67
2023/09/04 08:54:43;;;;;;;5.57;3.58;;;19.20;99.90;;;;;;5014200;28;20037;-68
2023/09/04 08:57:09;;;;;;;6.15;3.60;;;19.20;99.90;;;;;;5031161;28;20112;-68
2023/09/04 08:59:34;;;;;;;7.32;3.78;;;19.20;99.90;;;;;;5049224;28;20076;-67
2023/09/04 09:02:04;;;;;;;5.93;3.80;;;19.30;99.90;;;;;;5013573;28;20075;-67
2023/09/04 09:04:31;;;;;;;9.15;3.22;;;19.30;99.90;;;;;;5015534;28;20044;-67
2023/09/04 09:06:57;;;;;;;5.45;3.28;;;19.30;99.90;;;;;;5029488;28;20045;-68
2023/09/04 09:09:24;;;;;;;5.93;3.58;;;19.40;99.90;;;;;;5030229;28;20033;-67
2023/09/04 09:11:56;;;;;;;6.18;3.67;;;19.50;99.90;;;;;;5030925;28;20052;-70
2023/09/04 09:14:28;;;;;;;6.72;3.15;;;19.50;99.90;;;;;;5030843;28;20041;-70
2023/09/04 09:17:13;;;;;;;6.72;3.20;;;19.60;99.90;;;;;;5030551;28;20502;-70
2023/09/04 09:19:39;;;;;;;5.57;3.28;;;19.70;99.90;;;;;;5031271;28;20052;-70
2023/09/04 09:22:15;;;;;;;6.15;3.25;;;19.80;99.90;;;;;;5048209;28;20040;-70
2023/09/04 09:24:59;;;;;;;6.28;3.50;;;20.00;99.90;;;;;;5030803;28;20124;-70
2023/09/04 09:27:31;;;;;;;5.45;2.90;;;20.00;99.90;;;;;;5031011;28;21026;-72
2023/09/04 09:29:58;;;;;;;6.90;3.85;;;20.10;99.90;;;;;;5030003;28;20051;-72
2023/09/04 09:32:30;;;;;;;8.60;4.40;;;20.10;99.90;;;;;;5030800;28;20037;-73
2023/09/04 09:34:58;;;;;;;7.13;3.67;;;20.10;99.90;;;;;;5048990;28;20051;-72
2023/09/04 09:37:26;;;;;;;7.82;3.70;;;20.10;99.90;;;;;;5029930;28;20394;-74
2023/09/04 09:39:52;;;;;;;6.90;3.63;;;20.10;99.90;;;;;;5031669;28;20049;-73
2023/09/04 09:42:21;;;;;;;6.53;3.28;;;20.20;99.90;;;;;;5031507;28;20041;-74
2023/09/04 09:44:47;;;;;;;6.40;3.65;;;20.20;99.90;;;;;;5048445;28;20094;-73
2023/09/04 09:47:14;;;;;;;6.30;3.90;;;20.30;99.90;;;;;;5024675;28;20097;-73
2023/09/04 09:49:40;;;;;;;7.38;3.75;;;20.30;99.90;;;;;;5030389;28;20402;-75
2023/09/04 09:52:10;;;;;;;7.40;3.40;;;20.40;99.90;;;;;;5029914;28;20091;-68
2023/09/04 09:54:44;;;;;;;6.85;3.60;;;20.40;99.90;;;;;;5030452;28;20044;-67
2023/09/04 09:57:17;;;;;;;4.82;2.95;;;20.50;99.90;;;;;;5031117;28;20041;-70
2023/09/04 09:59:48;;;;;;;5.95;3.17;;;20.50;99.90;;;;;;5030314;28;20046;-67
2023/09/04 10:02:26;;;;;;;5.30;3.45;;;20.60;99.90;;;;;;5031885;28;20395;-66
2023/09/04 10:04:53;;;;;;;6.30;4.20;;;20.70;99.90;;;;;;5030332;28;20038;-66
2023/09/04 10:07:26;;;;;;;8.93;3.58;;;20.70;99.90;;;;;;5031511;28;20041;-68
2023/09/04 10:09:59;;;;;;;6.45;3.78;;;20.70;99.90;;;;;;5030105;28;20049;-69
2023/09/04 10:12:48;;;;;;;5.47;2.95;;;20.80;99.90;;;;;;5029302;28;20045;-69
2023/09/04 10:15:20;;;;;;;6.10;3.20;;;20.90;99.90;;;;;;5031960;28;20079;-69
2023/09/04 10:17:52;;;;;;;6.28;3.38;;;20.90;99.90;;;;;;5034073;28;20033;-69
2023/09/04 10:20:21;;;;;;;5.90;3.10;;;21.00;99.90;;;;;;5034285;28;20045;-70
2023/09/04 10:23:08;;;;;;;6.90;3.55;;;21.00;99.90;;;;;;5035313;28;20045;-66
2023/09/04 10:25:43;;;;;;;6.47;3.38;;;21.00;99.90;;;;;;5033567;28;20044;-66
2023/09/04 10:28:18;;;;;;;6.13;3.35;;;21.10;99.90;;;;;;5033865;28;20088;-71
2023/09/04 10:30:54;;;;;;;5.47;2.83;;;21.10;99.90;;;;;;5033621;28;20084;-71
2023/09/04 10:33:21;;;;;;;5.60;3.05;;;21.20;99.90;;;;;;5034179;28;20528;-71
2023/09/04 10:35:47;;;;;;;5.63;3.00;;;21.30;99.90;;;;;;5033927;28;20120;-71
2023/09/04 10:38:13;;;;;;;5.03;3.08;;;21.30;99.90;;;;;;5033955;28;20447;-71
2023/09/04 10:40:40;;;;;;;5.03;3.03;;;21.30;99.90;;;;;;5032744;28;20055;-70
2023/09/04 10:43:11;;;;;;;5.18;2.80;;;21.40;99.90;;;;;;5033593;28;20059;-67
2023/09/04 10:45:38;;;;;;;5.32;3.30;;;21.40;99.90;;;;;;5033422;28;20039;-69
2023/09/04 10:48:04;;;;;;;6.05;2.78;;;21.40;99.90;;;;;;5049070;28;20064;-69
2023/09/04 10:50:38;;;;;;;6.03;2.90;;;21.40;99.90;;;;;;5036426;28;20505;-71
2023/09/04 10:53:06;;;;;;;9.38;3.08;;;21.50;99.90;;;;;;5036854;28;20123;-70
2023/09/04 10:55:34;;;;;;;8.07;3.53;;;21.60;99.90;;;;;;5036081;28;20041;-70
2023/09/04 10:58:04;;;;;;;5.88;2.55;;;21.60;99.90;;;;;;5054559;28;20391;-70
2023/09/04 11:00:30;;;;;;;5.40;3.00;;;21.60;99.90;;;;;;5035640;28;20045;-70
2023/09/04 11:02:58;;;;;;;6.82;2.92;;;21.70;99.90;;;;;;5036737;28;20086;-70
2023/09/04 11:05:24;;;;;;;6.18;2.80;;;21.70;99.90;;;;;;5036243;28;20045;-71
2023/09/04 11:07:50;;;;;;;5.38;2.65;;;21.70;99.90;;;;;;5053465;28;20094;-71
2023/09/04 11:10:18;;;;;;;4.35;2.67;;;21.70;99.90;;;;;;5036133;28;20048;-71
2023/09/04 11:12:45;;;;;;;4.68;2.60;;;21.60;99.90;;;;;;5036369;28;20033;-70
2023/09/04 11:15:16;;;;;;;5.22;3.13;;;21.70;99.90;;;;;;5035362;28;20048;-69
2023/09/04 11:17:48;;;;;;;5.88;3.15;;;21.70;99.90;;;;;;5036098;28;20119;-69
2023/09/04 11:20:15;;;;;;;4.55;2.80;;;21.70;99.90;;;;;;5053775;28;20044;-68
2023/09/04 11:22:48;;;;;;;4.30;2.40;;;21.70;99.90;;;;;;5035347;28;20052;-68
2023/09/04 11:25:17;;;;;;;4.72;2.72;;;21.70;99.90;;;;;;5019479;28;20142;-68
2023/09/04 11:27:44;;;;;;;4.70;2.28;;;21.70;99.90;;;;;;5034965;28;20040;-68
2023/09/04 11:30:11;;;;;;;5.85;2.80;;;21.80;99.90;;;;;;5018427;28;20087;-68
2023/09/04 11:32:38;;;;;;;4.68;2.75;;;21.80;99.90;;;;;;5053791;28;20040;-69
2023/09/04 11:35:04;;;;;;;4.45;2.28;;;21.90;99.90;;;;;;5036141;28;20041;-68
2023/09/04 11:37:32;;;;;;;7.80;2.50;;;21.90;99.90;;;;;;5034787;28;20156;-69
2023/09/04 11:40:00;;;;;;;5.43;2.60;;;22.00;99.90;;;;;;5035822;28;20520;-68
2023/09/04 11:42:29;;;;;;;4.90;2.80;;;22.00;99.90;;;;;;5035143;28;20394;-69
2023/09/04 11:44:55;;;;;;;4.82;2.72;;;22.00;99.90;;;;;;5053806;28;20115;-68
2023/09/04 11:47:22;;;;;;;6.00;3.22;;;22.00;99.90;;;;;;5041377;28;20569;-68
2023/09/04 11:49:48;;;;;;;4.82;2.88;;;22.00;99.90;;;;;;5051330;28;20044;-68
2023/09/04 11:52:16;;;;;;;5.18;2.60;;;22.00;99.90;;;;;;5052097;28;20069;-69
2023/09/04 11:54:43;;;;;;;6.30;3.13;;;22.10;99.90;;;;;;5052145;28;20563;-70
2023/09/04 11:57:09;;;;;;;4.55;2.30;;;22.10;99.90;;;;;;5051208;28;20041;-70
2023/09/04 11:59:39;;;;;;;4.90;2.30;;;22.10;99.90;;;;;;5052178;28;20413;-70
2023/09/04 12:02:07;;;;;;;4.60;2.05;;;22.10;99.90;;;;;;5052389;28;20124;-70
2023/09/04 12:04:33;;;;;;;6.40;2.53;;;22.20;99.90;;;;;;5051061;28;20059;-69
2023/09/04 12:07:03;;;;;;;4.38;2.10;;;22.20;99.90;;;;;;5052005;28;20490;-69
2023/09/04 12:09:29;;;;;;;4.68;2.28;;;22.30;99.90;;;;;;5034833;28;20490;-69
2023/09/04 12:11:56;;;;;;;6.47;2.50;;;22.30;99.90;;;;;;5051220;28;20048;-69
2023/09/04 12:14:22;;;;;;;4.05;1.83;;;22.40;99.90;;;;;;5051696;28;20076;-68
2023/09/04 12:16:48;;;;;;;5.80;2.05;;;22.40;99.90;;;;;;5052763;28;20076;-69
2023/09/04 12:19:17;;;;;;;5.38;2.47;;;22.30;99.90;;;;;;5050878;28;20044;-64
2023/09/04 12:21:43;;;;;;;5.55;2.58;;;22.40;99.90;;;;;;5052728;28;20041;-65
2023/09/04 12:24:13;;;;;;;5.60;2.17;;;22.40;99.90;;;;;;5051530;28;20080;-65
2023/09/04 12:26:39;;;;;;;4.85;2.55;;;22.50;99.90;;;;;;5052060;28;20033;-65
2023/09/04 12:29:07;;;;;;;4.18;2.47;;;22.50;99.90;;;;;;5051831;28;20182;-65
2023/09/04 12:31:32;;;;;;;4.05;2.22;;;22.50;99.90;;;;;;5051141;28;20090;-65
2023/09/04 12:33:58;;;;;;;5.20;1.85;;;22.50;99.90;;;;;;5051195;28;20036;-65
2023/09/04 12:36:24;;;;;;;4.35;2.22;;;22.60;99.90;;;;;;5051226;28;20405;-65
2023/09/04 12:38:49;;;;;;;4.13;2.08;;;22.60;99.90;;;;;;5050466;28;20052;-65
2023/09/04 12:41:15;;;;;;;5.28;2.25;;;22.70;99.90;;;;;;5034672;28;20124;-65
2023/09/04 12:43:41;;;;;;;4.35;2.10;;;22.80;99.90;;;;;;5051133;28;20362;-65